Time;durP1;ratioP1;P1;durP2;ratioP2;P2;SDS_P1;SDS_P2;PMS_P1;PMS_P2;Temp;Humidity;BMP_temperature;BMP_pressure;BME280_temperature;BME280_humidity;BME280_pressure;Samples;Min_cycle;Max_cycle;Signal;HPM_P1;HPM_P2
2023/03/19 00:01:47;;;;;;;6.72;6.03;;;5.70;99.90;;;;;;7382053;19;20357;-83
2023/03/19 00:04:15;;;;;;;8.70;6.40;;;5.70;99.90;;;;;;7382892;19;20697;-89
2023/03/19 00:06:40;;;;;;;8.20;5.85;;;5.60;99.90;;;;;;7383669;19;20332;-85
2023/03/19 00:09:06;;;;;;;7.68;6.63;;;5.60;99.90;;;;;;7386800;19;20309;-82
2023/03/19 00:11:33;;;;;;;8.63;7.23;;;5.60;99.90;;;;;;7389111;19;20304;-82
2023/03/19 00:13:58;;;;;;;8.63;7.28;;;5.60;99.90;;;;;;7388494;19;20328;-81
2023/03/19 00:16:24;;;;;;;9.30;6.40;;;5.60;99.90;;;;;;7388435;19;20312;-84
2023/03/19 00:18:50;;;;;;;8.20;6.72;;;5.50;99.90;;;;;;7390963;19;20587;-80
2023/03/19 00:21:16;;;;;;;9.30;6.80;;;5.50;99.90;;;;;;7386450;19;20316;-80
2023/03/19 00:23:41;;;;;;;8.32;6.40;;;5.50;99.90;;;;;;7387650;19;20398;-79
2023/03/19 00:26:13;;;;;;;7.55;6.47;;;5.40;99.90;;;;;;7388861;19;20320;-78
2023/03/19 00:28:39;;;;;;;7.23;5.90;;;5.40;99.90;;;;;;7387855;19;20321;-82
2023/03/19 00:31:07;;;;;;;8.90;5.97;;;5.30;99.90;;;;;;7388339;19;20313;-84
2023/03/19 00:33:32;;;;;;;5.63;5.07;;;5.30;99.90;;;;;;7395217;19;20337;-84
2023/03/19 00:35:58;;;;;;;7.03;5.33;;;5.30;99.90;;;;;;7394748;19;20305;-81
2023/03/19 00:38:24;;;;;;;8.77;5.85;;;5.30;99.90;;;;;;7393135;19;20331;-83
2023/03/19 00:40:50;;;;;;;6.78;5.22;;;5.30;99.90;;;;;;7391147;19;20340;-83
2023/03/19 00:43:16;;;;;;;6.47;5.10;;;5.30;99.90;;;;;;7387916;19;20346;-85
2023/03/19 00:45:41;;;;;;;5.87;4.83;;;5.20;99.90;;;;;;7392154;19;20321;-85
2023/03/19 00:48:07;;;;;;;6.82;4.97;;;5.20;99.90;;;;;;7392001;19;20324;-84
2023/03/19 00:50:33;;;;;;;6.30;5.70;;;5.20;99.90;;;;;;7388642;19;20332;-83
2023/03/19 00:52:58;;;;;;;6.85;5.15;;;5.20;99.90;;;;;;7388654;19;20990;-81
2023/03/19 00:55:26;;;;;;;6.67;5.53;;;5.20;99.90;;;;;;7390984;19;20300;-80
2023/03/19 00:57:51;;;;;;;5.97;5.15;;;5.20;99.90;;;;;;7392093;19;20336;-84
2023/03/19 01:00:18;;;;;;;8.17;6.30;;;5.20;99.90;;;;;;7387508;19;20328;-84
2023/03/19 01:02:43;;;;;;;6.82;6.10;;;5.20;99.90;;;;;;7389365;19;20323;-82
2023/03/19 01:05:11;;;;;;;7.30;5.40;;;5.20;99.90;;;;;;7389149;19;20356;-79
2023/03/19 01:07:36;;;;;;;5.93;5.35;;;5.20;99.90;;;;;;7372515;19;20521;-80
2023/03/19 01:10:02;;;;;;;6.18;5.07;;;5.20;99.90;;;;;;7389037;19;21238;-80
2023/03/19 01:12:28;;;;;;;6.72;5.70;;;5.10;99.90;;;;;;7389045;19;20309;-78
2023/03/19 01:14:54;;;;;;;7.07;6.30;;;5.10;99.90;;;;;;7390909;19;20973;-83
2023/03/19 01:17:19;;;;;;;8.18;6.05;;;5.10;99.90;;;;;;7392164;19;20337;-79
2023/03/19 01:19:46;;;;;;;5.37;4.83;;;5.10;99.90;;;;;;7390962;19;20357;-80
2023/03/19 01:22:13;;;;;;;7.30;6.13;;;5.10;99.90;;;;;;7382843;19;20770;-80
2023/03/19 01:24:42;;;;;;;6.50;5.72;;;5.10;99.90;;;;;;7391274;19;20874;-81
2023/03/19 01:27:08;;;;;;;7.70;5.93;;;5.00;99.90;;;;;;7394245;19;20325;-78
2023/03/19 01:29:35;;;;;;;9.43;6.85;;;5.00;99.90;;;;;;7389736;19;20365;-78
2023/03/19 01:32:08;;;;;;;9.20;6.55;;;5.00;99.90;;;;;;7390720;19;20961;-81
2023/03/19 01:34:59;;;;;;;7.22;5.95;;;5.00;99.90;;;;;;7392568;19;20328;-85
2023/03/19 01:37:25;;;;;;;7.90;6.78;;;5.00;99.90;;;;;;7388501;19;20887;-80
2023/03/19 01:39:51;;;;;;;8.50;6.78;;;5.00;99.90;;;;;;7386161;19;20685;-83
2023/03/19 01:42:17;;;;;;;6.60;5.83;;;4.90;99.90;;;;;;7387037;19;20335;-85
2023/03/19 01:45:33;;;;;;;6.88;5.68;;;4.90;99.90;;;;;;7286101;19;2004569;-79
2023/03/19 01:48:43;;;;;;;6.80;6.10;;;4.90;99.90;;;;;;7184202;19;2004438;-80
2023/03/19 01:51:15;;;;;;;10.15;7.05;;;4.90;99.90;;;;;;7283849;19;2004464;-82
2023/03/19 01:54:01;;;;;;;7.40;6.57;;;4.90;99.90;;;;;;7388364;19;20333;-80
2023/03/19 01:56:33;;;;;;;6.45;5.38;;;4.80;99.90;;;;;;7389532;19;20321;-86
2023/03/19 01:59:29;;;;;;;8.32;5.95;;;4.80;99.90;;;;;;7286200;19;2004372;-81
2023/03/19 02:02:23;;;;;;;6.05;5.22;;;4.80;99.90;;;;;;7284296;19;2004231;-79
2023/03/19 02:04:51;;;;;;;7.10;5.88;;;4.80;99.90;;;;;;7388283;19;20332;-89
2023/03/19 02:07:28;;;;;;;6.97;5.43;;;4.80;99.90;;;;;;7387750;19;20313;-82
2023/03/19 02:09:54;;;;;;;7.20;5.88;;;4.80;99.90;;;;;;7385759;19;20320;-81
2023/03/19 02:12:19;;;;;;;8.47;5.57;;;4.80;99.90;;;;;;7388655;19;20919;-85
2023/03/19 02:14:45;;;;;;;6.97;5.50;;;4.80;99.90;;;;;;7387979;19;20328;-79
2023/03/19 02:17:11;;;;;;;6.45;5.40;;;4.80;99.90;;;;;;7388149;19;20321;-84
2023/03/19 02:19:47;;;;;;;7.00;5.43;;;4.80;99.90;;;;;;7385731;19;20359;-80
2023/03/19 02:22:13;;;;;;;7.07;5.30;;;4.90;99.90;;;;;;7385769;19;20335;-82
2023/03/19 02:24:44;;;;;;;6.47;5.28;;;4.90;99.90;;;;;;7387058;19;20349;-82
2023/03/19 02:27:13;;;;;;;5.70;5.00;;;4.90;99.90;;;;;;7386693;19;20356;-83
2023/03/19 02:29:42;;;;;;;7.07;5.90;;;4.80;99.90;;;;;;7386077;19;20348;-81
2023/03/19 02:32:08;;;;;;;8.57;6.20;;;4.90;99.90;;;;;;7386031;19;20322;-81
2023/03/19 02:34:36;;;;;;;7.28;6.20;;;4.80;99.90;;;;;;7387586;19;20317;-80
2023/03/19 02:37:30;;;;;;;6.90;5.50;;;4.80;99.90;;;;;;7389091;19;20878;-79
2023/03/19 02:40:06;;;;;;;6.57;5.85;;;4.80;99.90;;;;;;7284370;19;2004433;-82
2023/03/19 02:42:32;;;;;;;8.48;6.45;;;4.80;99.90;;;;;;7388539;19;20313;-83
2023/03/19 02:44:58;;;;;;;6.37;5.77;;;4.80;99.90;;;;;;7388971;19;20308;-84
2023/03/19 02:47:24;;;;;;;7.10;6.40;;;4.90;99.90;;;;;;7387376;19;20396;-85
2023/03/19 02:49:49;;;;;;;8.05;6.25;;;4.90;99.90;;;;;;7386289;19;20376;-81
2023/03/19 02:52:15;;;;;;;7.37;6.03;;;4.90;99.90;;;;;;7385807;19;20336;-78
2023/03/19 02:54:42;;;;;;;7.10;5.60;;;4.80;99.90;;;;;;7386363;19;20319;-79
2023/03/19 02:57:08;;;;;;;5.97;5.37;;;4.80;99.90;;;;;;7339828;19;20332;-78
2023/03/19 02:59:34;;;;;;;6.25;5.45;;;4.80;99.90;;;;;;7388361;19;21338;-77
2023/03/19 03:02:03;;;;;;;7.70;6.00;;;4.80;99.90;;;;;;7380850;19;21167;-78
2023/03/19 03:04:29;;;;;;;6.60;5.18;;;4.90;99.90;;;;;;7387949;19;20357;-78
2023/03/19 03:06:55;;;;;;;7.25;5.70;;;4.90;99.90;;;;;;7381852;19;20320;-83
2023/03/19 03:09:21;;;;;;;7.18;5.28;;;4.90;99.90;;;;;;7387612;19;20320;-82
2023/03/19 03:11:47;;;;;;;7.45;6.22;;;4.90;99.90;;;;;;7389255;19;20400;-81
2023/03/19 03:14:12;;;;;;;8.07;6.23;;;4.90;99.90;;;;;;7390782;19;20331;-81
2023/03/19 03:16:39;;;;;;;8.30;6.53;;;4.90;99.90;;;;;;7390766;19;20341;-83
2023/03/19 03:19:14;;;;;;;8.10;6.67;;;5.00;99.90;;;;;;7390128;19;20309;-80
2023/03/19 03:21:40;;;;;;;6.55;5.93;;;4.90;99.90;;;;;;7391423;19;20333;-83
2023/03/19 03:24:06;;;;;;;7.87;6.67;;;4.90;99.90;;;;;;7389028;19;20868;-85
2023/03/19 03:26:34;;;;;;;9.02;6.78;;;4.90;99.90;;;;;;7391019;19;20385;-80
2023/03/19 03:29:00;;;;;;;8.85;6.53;;;4.90;99.90;;;;;;7390777;19;20324;-82
2023/03/19 03:31:26;;;;;;;8.83;6.90;;;4.90;99.90;;;;;;7387446;19;20404;-82
2023/03/19 03:33:52;;;;;;;7.95;6.20;;;4.90;99.90;;;;;;7385737;19;20356;-82
2023/03/19 03:36:18;;;;;;;6.15;5.55;;;4.90;99.90;;;;;;7386223;19;20362;-78
2023/03/19 03:38:44;;;;;;;6.50;5.80;;;4.90;99.90;;;;;;7385705;19;20336;-80
2023/03/19 03:41:11;;;;;;;6.90;5.70;;;5.00;99.90;;;;;;7383709;19;20328;-77
2023/03/19 03:43:38;;;;;;;7.88;5.47;;;5.10;99.90;;;;;;7383754;19;20414;-77
2023/03/19 03:46:04;;;;;;;6.30;5.70;;;5.10;99.90;;;;;;7385769;19;20333;-79
2023/03/19 03:48:30;;;;;;;7.03;6.10;;;5.10;99.90;;;;;;7387324;19;20326;-80
2023/03/19 03:50:55;;;;;;;7.13;5.80;;;5.10;99.90;;;;;;7383774;19;20320;-80
2023/03/19 03:53:25;;;;;;;6.13;5.53;;;5.10;99.90;;;;;;7386284;19;20328;-79
2023/03/19 03:55:50;;;;;;;6.43;5.53;;;5.20;99.90;;;;;;7385899;19;20359;-77
2023/03/19 03:58:19;;;;;;;7.65;6.03;;;5.20;99.90;;;;;;7385188;19;20361;-80
2023/03/19 04:00:46;;;;;;;6.65;5.85;;;5.20;99.90;;;;;;7382965;19;20321;-85
2023/03/19 04:03:12;;;;;;;7.10;5.70;;;5.20;99.90;;;;;;7384609;19;20332;-81
2023/03/19 04:05:38;;;;;;;6.22;4.90;;;5.10;99.90;;;;;;7385097;19;20415;-78
2023/03/19 04:08:04;;;;;;;6.47;5.50;;;5.10;99.90;;;;;;7384331;19;20341;-79
2023/03/19 04:10:30;;;;;;;7.80;5.65;;;5.10;99.90;;;;;;7383370;19;20336;-80
2023/03/19 04:12:56;;;;;;;5.15;4.65;;;5.10;99.90;;;;;;7384136;19;20662;-80
2023/03/19 04:15:22;;;;;;;5.95;5.07;;;5.10;99.90;;;;;;7384428;19;20331;-82
2023/03/19 04:17:49;;;;;;;5.72;5.13;;;5.20;99.90;;;;;;7384640;19;20344;-82
2023/03/19 04:20:17;;;;;;;7.18;5.72;;;5.20;99.90;;;;;;7383417;19;20357;-77
2023/03/19 04:22:43;;;;;;;5.68;5.05;;;5.30;99.90;;;;;;7380848;19;20653;-85
2023/03/19 04:25:09;;;;;;;6.45;5.47;;;5.20;99.90;;;;;;7383609;19;20662;-80
2023/03/19 04:27:37;;;;;;;7.53;5.80;;;5.20;99.90;;;;;;7384980;19;20491;-84
2023/03/19 04:30:03;;;;;;;5.45;4.85;;;5.20;99.90;;;;;;7385356;19;20412;-78
2023/03/19 04:32:29;;;;;;;6.93;5.75;;;5.20;99.90;;;;;;7381225;19;20346;-76
2023/03/19 04:34:57;;;;;;;5.85;4.90;;;5.30;99.90;;;;;;7383826;19;20316;-86
2023/03/19 04:37:22;;;;;;;7.00;5.47;;;5.20;99.90;;;;;;7383101;19;20311;-82
2023/03/19 04:39:50;;;;;;;7.28;5.05;;;5.30;99.90;;;;;;7381417;19;20350;-83
2023/03/19 04:42:16;;;;;;;9.30;5.90;;;5.30;99.90;;;;;;7383044;19;20344;-80
2023/03/19 04:44:48;;;;;;;6.90;5.93;;;5.40;99.90;;;;;;7383469;19;20333;-82
2023/03/19 04:47:14;;;;;;;6.10;5.25;;;5.40;99.90;;;;;;7382844;19;20316;-81
2023/03/19 04:49:48;;;;;;;5.75;5.05;;;5.40;99.90;;;;;;7382268;19;20360;-84
2023/03/19 04:52:16;;;;;;;5.97;4.93;;;5.40;99.90;;;;;;7380848;19;20349;-78
2023/03/19 04:54:42;;;;;;;6.03;5.40;;;5.50;99.90;;;;;;7381648;19;20399;-86
2023/03/19 04:57:08;;;;;;;5.50;4.97;;;5.50;99.90;;;;;;7382588;19;20313;-86
2023/03/19 04:59:37;;;;;;;6.80;5.50;;;5.50;99.90;;;;;;7381030;19;20387;-86
2023/03/19 05:02:03;;;;;;;5.30;4.80;;;5.50;99.90;;;;;;7381411;19;20332;-80
2023/03/19 05:04:30;;;;;;;6.05;5.45;;;5.50;99.90;;;;;;7383240;19;20324;-80
2023/03/19 05:07:01;;;;;;;5.75;4.82;;;5.50;99.90;;;;;;7380797;19;20737;-82
2023/03/19 05:09:29;;;;;;;5.85;5.00;;;5.40;99.90;;;;;;7382890;19;20320;-78
2023/03/19 05:11:55;;;;;;;5.85;5.25;;;5.40;99.90;;;;;;7379553;19;20340;-81
2023/03/19 05:14:21;;;;;;;7.35;5.78;;;5.40;99.90;;;;;;7384175;19;20348;-82
2023/03/19 05:16:57;;;;;;;6.20;5.57;;;5.40;99.90;;;;;;7382648;19;20313;-86
2023/03/19 05:19:25;;;;;;;7.30;5.63;;;5.40;99.90;;;;;;7388197;19;20970;-85
2023/03/19 05:21:51;;;;;;;7.18;5.70;;;5.40;99.90;;;;;;7386130;19;20886;-82
2023/03/19 05:24:23;;;;;;;6.57;5.72;;;5.30;99.90;;;;;;7389434;19;20328;-78
2023/03/19 05:26:49;;;;;;;7.60;5.80;;;5.20;99.90;;;;;;7389276;19;20349;-81
2023/03/19 05:29:41;;;;;;;7.03;5.82;;;5.20;99.90;;;;;;7286285;19;2004825;-79
2023/03/19 05:32:22;;;;;;;6.30;5.30;;;5.20;99.90;;;;;;7386303;19;20317;-82
2023/03/19 05:34:49;;;;;;;8.15;6.05;;;5.10;99.90;;;;;;7387755;19;20333;-78
2023/03/19 05:37:16;;;;;;;5.68;5.15;;;5.10;99.90;;;;;;7387908;19;20320;-79
2023/03/19 05:39:44;;;;;;;8.48;5.78;;;5.10;99.90;;;;;;7386883;19;20336;-80
2023/03/19 05:42:11;;;;;;;6.83;5.77;;;5.10;99.90;;;;;;7388479;19;20324;-82
2023/03/19 05:44:36;;;;;;;6.75;6.10;;;5.00;99.90;;;;;;7388874;19;20937;-80
2023/03/19 05:47:14;;;;;;;7.07;5.80;;;5.00;99.90;;;;;;7387895;19;20301;-83
2023/03/19 05:49:45;;;;;;;9.07;6.75;;;5.00;99.90;;;;;;7387959;19;20888;-79
2023/03/19 05:52:11;;;;;;;6.10;5.20;;;5.00;99.90;;;;;;7387262;19;20337;-83
2023/03/19 05:54:36;;;;;;;6.05;5.45;;;5.10;99.90;;;;;;7389151;19;20333;-80
2023/03/19 05:57:10;;;;;;;6.78;6.07;;;5.10;99.90;;;;;;7388914;19;20342;-81
2023/03/19 05:59:55;;;;;;;6.47;5.70;;;5.10;99.90;;;;;;7388351;19;20343;-79
2023/03/19 06:02:35;;;;;;;6.68;5.97;;;5.10;99.90;;;;;;7387932;19;20323;-79
2023/03/19 06:05:15;;;;;;;6.05;5.45;;;5.10;99.90;;;;;;7287153;19;2004741;-78
2023/03/19 06:07:42;;;;;;;6.40;5.60;;;5.20;99.90;;;;;;7387859;19;20345;-80
2023/03/19 06:10:13;;;;;;;6.70;5.40;;;5.20;99.90;;;;;;7386902;19;20349;-83
2023/03/19 06:12:39;;;;;;;6.23;5.53;;;5.20;99.90;;;;;;7385384;19;20345;-78
2023/03/19 06:15:26;;;;;;;5.75;5.15;;;5.20;99.90;;;;;;7388612;19;20346;-82
2023/03/19 06:18:06;;;;;;;6.00;5.38;;;5.30;99.90;;;;;;7285062;19;2004711;-79
2023/03/19 06:20:31;;;;;;;6.55;5.45;;;5.30;99.90;;;;;;7387656;19;20388;-82
2023/03/19 06:22:57;;;;;;;7.53;6.03;;;5.40;99.90;;;;;;7384291;19;20331;-79
2023/03/19 06:25:23;;;;;;;7.47;6.63;;;5.40;99.90;;;;;;7389117;19;20344;-83
2023/03/19 06:27:49;;;;;;;7.38;6.55;;;5.50;99.90;;;;;;7388202;19;20815;-82
2023/03/19 06:30:23;;;;;;;5.75;5.18;;;5.40;99.90;;;;;;7383078;19;20412;-81
2023/03/19 06:32:49;;;;;;;8.63;7.03;;;5.50;99.90;;;;;;7386390;19;20375;-82
2023/03/19 06:35:15;;;;;;;7.43;6.20;;;5.50;99.90;;;;;;7386755;19;20325;-78
2023/03/19 06:37:43;;;;;;;9.05;7.13;;;5.60;99.90;;;;;;7386402;19;20331;-86
2023/03/19 06:40:09;;;;;;;9.73;7.10;;;5.60;99.90;;;;;;7387400;19;20353;-80
2023/03/19 06:42:35;;;;;;;6.90;5.75;;;5.70;99.90;;;;;;7385648;19;20330;-81
2023/03/19 06:45:01;;;;;;;7.90;6.50;;;5.80;99.90;;;;;;7391079;19;20372;-85
2023/03/19 06:47:28;;;;;;;7.97;6.97;;;5.90;99.90;;;;;;7387310;19;21095;-89
2023/03/19 06:49:53;;;;;;;7.93;6.15;;;6.00;99.90;;;;;;7386601;19;20373;-83
2023/03/19 06:52:19;;;;;;;6.13;5.33;;;6.10;99.90;;;;;;7386398;19;21111;-84
2023/03/19 06:54:45;;;;;;;9.10;5.82;;;6.20;99.90;;;;;;7388924;19;20421;-84
2023/03/19 06:57:11;;;;;;;7.17;5.77;;;6.30;99.90;;;;;;7383987;19;20316;-80
2023/03/19 06:59:37;;;;;;;7.13;6.18;;;6.40;99.90;;;;;;7371434;19;20855;-84
2023/03/19 07:02:04;;;;;;;6.38;5.53;;;6.60;99.90;;;;;;7384363;19;20316;-78
2023/03/19 07:04:30;;;;;;;7.50;5.40;;;6.60;99.90;;;;;;7384164;19;20354;-82
2023/03/19 07:06:55;;;;;;;6.88;5.93;;;6.70;99.90;;;;;;7390487;19;20323;-80
2023/03/19 07:09:22;;;;;;;8.30;6.70;;;6.80;99.90;;;;;;7387374;19;20320;-80
2023/03/19 07:11:47;;;;;;;7.90;5.87;;;6.90;99.90;;;;;;7386930;19;20443;-83
2023/03/19 07:14:13;;;;;;;7.47;5.45;;;7.00;99.90;;;;;;7398189;19;20855;-84
2023/03/19 07:16:39;;;;;;;8.63;6.78;;;7.20;99.90;;;;;;7398534;19;20665;-86
2023/03/19 07:19:04;;;;;;;7.80;6.27;;;7.20;99.90;;;;;;7396741;19;20333;-83
2023/03/19 07:21:30;;;;;;;5.57;4.97;;;7.40;99.90;;;;;;7394559;19;20344;-89
2023/03/19 07:23:56;;;;;;;7.50;6.35;;;7.50;99.90;;;;;;7393782;19;20339;-80
2023/03/19 07:26:21;;;;;;;8.30;6.63;;;7.70;99.90;;;;;;7393430;19;20312;-80
2023/03/19 07:28:47;;;;;;;7.43;6.07;;;7.80;99.90;;;;;;7395951;19;20350;-82
2023/03/19 07:31:15;;;;;;;8.37;5.60;;;8.00;99.90;;;;;;7391432;19;20329;-83
2023/03/19 07:33:41;;;;;;;7.57;6.03;;;8.30;99.90;;;;;;7392331;19;20642;-80
2023/03/19 07:36:07;;;;;;;7.70;5.50;;;8.40;99.90;;;;;;7394866;19;20328;-83
2023/03/19 07:38:32;;;;;;;8.60;6.25;;;8.60;99.90;;;;;;7396320;19;20332;-84
2023/03/19 07:40:58;;;;;;;7.07;5.47;;;8.80;99.90;;;;;;7392608;19;20847;-83
2023/03/19 07:43:24;;;;;;;6.33;5.33;;;8.90;99.90;;;;;;7393438;19;21860;-83
2023/03/19 07:45:50;;;;;;;7.07;5.40;;;9.00;99.90;;;;;;7397941;19;20348;-80
2023/03/19 07:48:16;;;;;;;6.07;5.15;;;9.20;99.90;;;;;;7399825;19;20339;-82
2023/03/19 07:50:42;;;;;;;6.35;5.45;;;9.30;99.90;;;;;;7398625;19;20730;-85
2023/03/19 07:53:07;;;;;;;7.77;5.93;;;9.50;99.90;;;;;;7399280;19;20312;-79
2023/03/19 07:55:33;;;;;;;7.32;5.63;;;9.70;99.90;;;;;;7402645;19;20817;-83
2023/03/19 07:58:00;;;;;;;8.00;5.80;;;9.80;99.90;;;;;;7396398;19;20431;-82
2023/03/19 08:00:26;;;;;;;8.10;5.57;;;9.90;99.90;;;;;;7391210;19;20685;-82
2023/03/19 08:02:51;;;;;;;8.48;5.63;;;9.90;99.90;;;;;;7392259;19;20359;-83
2023/03/19 08:05:17;;;;;;;7.77;5.53;;;10.00;99.90;;;;;;7392818;19;20368;-81
2023/03/19 08:07:43;;;;;;;6.33;5.00;;;10.00;99.90;;;;;;7392268;19;20336;-80
2023/03/19 08:10:10;;;;;;;8.30;6.10;;;10.10;99.90;;;;;;7392517;19;20344;-84
2023/03/19 08:12:39;;;;;;;9.02;5.68;;;10.20;99.90;;;;;;7388139;19;20312;-79
2023/03/19 08:15:06;;;;;;;10.30;6.83;;;10.40;99.90;;;;;;7394266;19;20320;-78
2023/03/19 08:17:36;;;;;;;6.90;5.55;;;10.50;99.90;;;;;;7394459;19;20320;-79
2023/03/19 08:20:07;;;;;;;9.75;6.57;;;10.60;99.90;;;;;;7391334;19;20356;-83
2023/03/19 08:22:34;;;;;;;8.60;6.47;;;10.70;99.90;;;;;;7389949;19;20320;-83
2023/03/19 08:24:59;;;;;;;8.52;5.82;;;10.80;99.90;;;;;;7391020;19;20309;-83
2023/03/19 08:27:26;;;;;;;8.37;5.70;;;10.80;99.90;;;;;;7393454;19;20312;-80
2023/03/19 08:29:52;;;;;;;6.38;5.00;;;10.90;99.90;;;;;;7390658;19;20352;-81
2023/03/19 08:32:17;;;;;;;6.97;5.43;;;11.00;99.90;;;;;;7389031;19;20332;-80
2023/03/19 08:34:43;;;;;;;6.75;5.40;;;11.10;99.90;;;;;;7394320;19;20313;-79
2023/03/19 08:37:08;;;;;;;8.57;6.03;;;11.20;99.90;;;;;;7391612;19;20309;-82
2023/03/19 08:39:34;;;;;;;7.32;5.45;;;11.20;99.90;;;;;;7397384;19;20313;-80
2023/03/19 08:42:00;;;;;;;8.68;5.75;;;11.30;99.90;;;;;;7401057;19;20414;-87
2023/03/19 08:44:25;;;;;;;7.53;5.30;;;11.40;99.90;;;;;;7386544;19;20313;-77
2023/03/19 08:46:51;;;;;;;5.82;5.00;;;11.50;99.90;;;;;;7385309;19;20369;-79
2023/03/19 08:49:17;;;;;;;6.47;5.13;;;11.60;99.90;;;;;;7383682;19;20813;-77
2023/03/19 08:51:42;;;;;;;7.45;5.50;;;11.70;99.90;;;;;;7375312;19;20324;-74
2023/03/19 08:54:10;;;;;;;8.17;5.40;;;11.90;99.90;;;;;;7387094;19;20321;-80
2023/03/19 08:56:35;;;;;;;7.33;5.27;;;12.00;99.90;;;;;;7391179;19;20872;-77
2023/03/19 09:00:04;;;;;;;7.82;5.75;;;12.00;99.90;;;;;;7382793;19;20363;-83
2023/03/19 09:02:31;;;;;;;10.65;7.88;;;12.10;99.90;;;;;;7389641;19;20316;-84
2023/03/19 09:04:56;;;;;;;5.70;5.10;;;12.20;99.90;;;;;;7416108;19;20309;-81
2023/03/19 09:07:22;;;;;;;5.43;4.57;;;12.20;99.90;;;;;;7401536;19;21087;-77
2023/03/19 09:09:48;;;;;;;7.03;4.38;;;12.30;99.90;;;;;;7397602;19;20352;-76
2023/03/19 09:12:15;;;;;;;8.30;5.47;;;12.50;99.90;;;;;;7389123;19;20337;-77
2023/03/19 09:14:41;;;;;;;6.80;5.50;;;12.50;99.90;;;;;;7387923;19;20681;-76
2023/03/19 09:17:07;;;;;;;9.32;5.32;;;12.60;99.90;;;;;;7388719;19;20335;-79
2023/03/19 09:19:33;;;;;;;6.50;4.85;;;12.70;99.90;;;;;;7388412;19;20688;-79
2023/03/19 09:21:58;;;;;;;7.55;4.95;;;12.80;99.90;;;;;;7381924;19;20390;-79
2023/03/19 09:24:25;;;;;;;36.90;15.98;;;13.00;99.90;;;;;;7386778;19;20336;-79
2023/03/19 09:26:51;;;;;;;18.30;11.98;;;13.10;99.90;;;;;;7371991;19;20341;-81
2023/03/19 09:29:16;;;;;;;11.00;8.40;;;13.10;99.90;;;;;;7392643;19;20856;-79
2023/03/19 09:31:45;;;;;;;12.00;8.35;;;13.10;99.90;;;;;;7396579;19;20317;-78
2023/03/19 10:10:06;;;;;;;7.25;6.35;;;14.60;99.90;;;;;;7422851;19;20364;-78
2023/03/19 10:13:08;;;;;;;7.50;5.63;;;14.80;99.90;;;;;;7293051;19;2004215;-80
2023/03/19 10:15:34;;;;;;;7.00;5.20;;;14.80;99.70;;;;;;7383352;19;20329;-79
2023/03/19 10:18:10;;;;;;;8.85;5.47;;;14.80;98.50;;;;;;7382798;19;20440;-79
2023/03/19 10:21:09;;;;;;;7.63;5.53;;;14.90;99.10;;;;;;7282498;19;2005986;-78
2023/03/19 10:24:02;;;;;;;6.90;5.60;;;15.00;98.20;;;;;;7384714;19;20333;-79
2023/03/19 10:26:30;;;;;;;9.27;5.65;;;15.00;97.00;;;;;;7284917;19;2004389;-79
2023/03/19 10:29:09;;;;;;;6.70;5.28;;;15.00;96.70;;;;;;7384977;19;20331;-79
2023/03/19 10:31:36;;;;;;;5.73;4.70;;;15.00;98.50;;;;;;7380923;19;20344;-79
2023/03/19 10:34:22;;;;;;;7.32;4.85;;;15.10;98.60;;;;;;7385466;19;20359;-79
2023/03/19 10:36:47;;;;;;;6.20;5.25;;;15.10;97.20;;;;;;7280259;19;2004508;-78
2023/03/19 10:39:15;;;;;;;8.43;5.65;;;15.20;98.10;;;;;;7386437;19;20340;-78
2023/03/19 10:42:07;;;;;;;6.90;5.18;;;15.20;96.30;;;;;;7381418;19;20391;-79
2023/03/19 10:44:37;;;;;;;9.27;5.95;;;15.30;96.90;;;;;;7387977;19;20618;-79
2023/03/19 10:47:11;;;;;;;7.57;5.43;;;15.50;97.30;;;;;;7391842;19;20322;-80
2023/03/19 10:52:43;;;;;;;6.77;4.70;;;15.70;96.80;;;;;;7358942;19;20308;-79
2023/03/19 10:55:17;;;;;;;5.70;5.10;;;16.00;98.30;;;;;;7382812;19;20337;-77
2023/03/19 10:57:44;;;;;;;7.45;5.47;;;16.20;98.20;;;;;;7383545;19;20415;-78
2023/03/19 11:00:22;;;;;;;6.32;5.03;;;16.10;97.20;;;;;;7383020;19;20910;-78
2023/03/19 11:02:55;;;;;;;5.60;5.03;;;16.20;98.60;;;;;;7384193;19;20336;-78
2023/03/19 11:05:22;;;;;;;7.53;5.00;;;16.40;99.70;;;;;;7385197;19;20353;-77
2023/03/19 11:07:49;;;;;;;7.75;5.55;;;16.70;99.00;;;;;;7383673;19;20333;-77
2023/03/19 11:10:16;;;;;;;6.82;5.05;;;16.80;98.70;;;;;;7382721;19;20970;-78
2023/03/19 11:12:50;;;;;;;7.15;5.18;;;16.90;99.00;;;;;;7365723;19;21281;-79
2023/03/19 11:15:28;;;;;;;8.00;4.75;;;16.90;97.80;;;;;;7379259;19;20329;-79
2023/03/19 11:18:01;;;;;;;6.28;5.35;;;17.00;98.20;;;;;;7383243;19;20346;-78
2023/03/19 11:20:32;;;;;;;7.32;5.30;;;17.10;98.40;;;;;;7384626;19;20319;-79
2023/03/19 11:23:01;;;;;;;8.30;5.65;;;17.20;97.90;;;;;;7383700;19;20308;-78
2023/03/19 11:25:30;;;;;;;6.78;5.28;;;17.20;97.80;;;;;;7382583;19;20340;-78
2023/03/19 11:28:00;;;;;;;7.50;5.43;;;17.20;98.90;;;;;;7380967;19;20377;-80
2023/03/19 11:30:27;;;;;;;7.65;5.40;;;17.30;98.00;;;;;;7361927;19;20340;-79
2023/03/19 11:33:14;;;;;;;7.65;5.13;;;17.40;98.50;;;;;;7381865;19;20426;-78
2023/03/19 11:36:17;;;;;;;8.43;6.22;;;17.40;99.00;;;;;;7278572;19;2004233;-78
2023/03/19 11:39:11;;;;;;;6.55;5.40;;;17.50;97.70;;;;;;7260570;19;2004244;-77
2023/03/19 11:42:18;;;;;;;6.22;5.10;;;17.40;98.10;;;;;;7278862;19;2004521;-78
2023/03/19 11:45:01;;;;;;;7.65;5.50;;;17.40;97.40;;;;;;7278757;19;2004241;-78
2023/03/19 11:47:36;;;;;;;7.78;5.75;;;17.30;97.50;;;;;;7359614;19;20333;-78
2023/03/19 11:50:06;;;;;;;4.55;3.83;;;17.30;98.10;;;;;;7379200;19;20321;-79
2023/03/19 11:52:43;;;;;;;7.65;5.93;;;17.50;98.70;;;;;;7363486;19;20352;-78
2023/03/19 11:55:25;;;;;;;6.57;5.50;;;17.40;96.60;;;;;;7276880;19;2004677;-79
2023/03/19 11:58:02;;;;;;;6.75;5.53;;;17.40;97.10;;;;;;7381167;19;20357;-78
2023/03/19 12:00:42;;;;;;;7.15;5.32;;;17.30;96.30;;;;;;7379832;19;20398;-79
2023/03/19 12:03:39;;;;;;;6.47;5.55;;;17.30;96.80;;;;;;7279688;19;2004320;-78
2023/03/19 12:06:23;;;;;;;8.00;5.70;;;17.50;98.30;;;;;;7378356;19;20338;-78
2023/03/19 12:09:02;;;;;;;8.33;5.93;;;17.60;98.30;;;;;;7279422;19;2004636;-79
2023/03/19 12:11:43;;;;;;;6.85;4.97;;;17.60;96.90;;;;;;7380598;19;20347;-79
2023/03/19 12:14:24;;;;;;;6.70;5.22;;;17.60;96.60;;;;;;7276936;19;2004196;-79
2023/03/19 12:17:09;;;;;;;8.80;5.60;;;17.70;97.70;;;;;;7383416;19;20328;-78
2023/03/19 12:19:54;;;;;;;7.95;6.18;;;17.80;97.20;;;;;;7381764;19;20874;-78
2023/03/19 12:22:53;;;;;;;6.72;5.60;;;17.60;97.20;;;;;;7278120;19;2004678;-78
2023/03/19 12:25:19;;;;;;;7.72;5.63;;;17.50;95.00;;;;;;7280539;19;2004393;-79
2023/03/19 12:27:53;;;;;;;8.82;5.68;;;17.20;95.10;;;;;;7385735;19;20353;-78
2023/03/19 12:30:29;;;;;;;10.55;6.03;;;17.00;95.40;;;;;;7385738;19;20665;-79
2023/03/19 12:33:29;;;;;;;6.30;4.90;;;16.80;95.60;;;;;;7386823;19;20344;-79
2023/03/19 12:35:55;;;;;;;8.73;5.30;;;17.00;96.60;;;;;;7284872;19;2004310;-78
2023/03/19 12:38:35;;;;;;;6.07;5.47;;;17.10;95.30;;;;;;7385719;19;20425;-78
2023/03/19 12:41:10;;;;;;;7.57;6.00;;;17.10;96.00;;;;;;7387815;19;20312;-79
2023/03/19 12:44:11;;;;;;;6.00;5.32;;;17.00;96.20;;;;;;7386439;19;21131;-78
2023/03/19 12:46:50;;;;;;;6.73;5.03;;;17.10;97.40;;;;;;7181675;19;2004542;-79
2023/03/19 12:49:18;;;;;;;7.57;5.50;;;17.20;96.30;;;;;;7387954;19;20666;-78
2023/03/19 12:51:51;;;;;;;6.40;4.60;;;17.10;96.10;;;;;;7386249;19;21013;-78
2023/03/19 12:54:27;;;;;;;6.03;5.13;;;17.10;96.40;;;;;;7386407;19;20324;-78
2023/03/19 12:56:57;;;;;;;6.97;4.60;;;17.20;96.00;;;;;;7387560;19;20596;-78
2023/03/19 12:59:38;;;;;;;4.93;4.03;;;17.30;96.10;;;;;;7386092;19;20375;-79
2023/03/19 13:02:27;;;;;;;7.68;5.32;;;17.40;96.00;;;;;;7367701;19;20812;-78
2023/03/19 13:05:01;;;;;;;6.18;4.85;;;17.60;96.20;;;;;;7267953;19;2020053;-78
2023/03/19 13:07:33;;;;;;;9.50;6.05;;;17.60;96.10;;;;;;7385377;19;20387;-79
2023/03/19 13:10:03;;;;;;;10.07;6.93;;;17.40;95.50;;;;;;7384684;19;20300;-79
2023/03/19 13:12:30;;;;;;;5.88;4.70;;;17.10;95.30;;;;;;7385112;19;20305;-78
2023/03/19 13:15:15;;;;;;;6.85;5.00;;;17.10;96.20;;;;;;7386424;19;20325;-78
2023/03/19 13:18:02;;;;;;;6.35;5.10;;;17.20;95.80;;;;;;7284314;19;2013845;-78
2023/03/19 13:20:49;;;;;;;8.93;6.00;;;17.10;95.30;;;;;;7385289;19;20311;-79
2023/03/19 13:23:21;;;;;;;6.43;5.05;;;16.90;94.30;;;;;;7282748;19;2004635;-78
2023/03/19 13:25:47;;;;;;;6.40;5.50;;;16.80;95.40;;;;;;7386349;19;20373;-79
2023/03/19 13:28:23;;;;;;;6.28;5.25;;;16.60;94.20;;;;;;7387584;19;20363;-78
2023/03/19 13:30:59;;;;;;;7.93;5.90;;;16.40;95.40;;;;;;7385687;19;20333;-78
2023/03/19 13:33:25;;;;;;;7.68;4.70;;;16.20;95.40;;;;;;7386506;19;20330;-78
2023/03/19 13:35:51;;;;;;;5.20;4.45;;;16.10;95.80;;;;;;7386841;19;20345;-79
2023/03/19 13:38:19;;;;;;;8.07;6.30;;;16.30;96.40;;;;;;7384350;19;20851;-78
2023/03/19 13:40:55;;;;;;;7.13;5.70;;;16.40;95.30;;;;;;7385147;19;20332;-78
2023/03/19 13:43:26;;;;;;;8.52;6.03;;;16.20;95.40;;;;;;7386626;19;20320;-78
2023/03/19 13:46:02;;;;;;;7.18;5.43;;;16.20;95.80;;;;;;7387601;19;20344;-78
2023/03/19 13:48:27;;;;;;;6.20;4.82;;;16.20;95.70;;;;;;7385895;19;20393;-77